createdAt,value
2022-08-18T00:02:14.109Z,25.65
2022-08-18T00:04:45.313Z,25.64
2022-08-18T00:07:06.861Z,25.63
2022-08-18T00:09:33.256Z,25.65
2022-08-18T00:11:59.630Z,25.64
2022-08-18T00:14:26.095Z,25.64
2022-08-18T00:16:52.517Z,25.64
2022-08-18T00:19:18.861Z,25.64
2022-08-18T00:21:45.413Z,25.64
2022-08-18T00:24:11.792Z,25.62
2022-08-18T00:26:38.175Z,25.63
2022-08-18T00:29:04.562Z,25.64
2022-08-18T00:31:30.945Z,25.63
2022-08-18T00:33:57.332Z,25.64
2022-08-18T00:36:23.714Z,25.63
2022-08-18T00:38:50.126Z,25.63
2022-08-18T00:41:16.508Z,25.63
2022-08-18T00:43:42.933Z,25.64
2022-08-18T00:46:09.310Z,25.64
2022-08-18T00:48:35.692Z,25.64
2022-08-18T00:51:02.085Z,25.64
2022-08-18T00:53:30.150Z,25.63
2022-08-18T00:55:54.905Z,25.63
2022-08-18T00:58:21.372Z,25.63
2022-08-18T01:00:47.833Z,25.63
2022-08-18T01:03:14.147Z,25.63
2022-08-18T01:05:40.534Z,25.64
2022-08-18T01:08:06.941Z,25.62
2022-08-18T01:10:33.865Z,25.63
2022-08-18T01:13:00.257Z,25.63
2022-08-18T01:15:29.443Z,25.62
2022-08-18T01:17:53.222Z,25.63
2022-08-18T01:20:19.433Z,25.61
2022-08-18T01:22:45.819Z,25.60
2022-08-18T01:25:12.199Z,25.61
2022-08-18T01:27:38.584Z,25.63
2022-08-18T01:30:04.979Z,25.61
2022-08-18T01:32:31.364Z,25.61
2022-08-18T01:34:57.746Z,25.61
2022-08-18T01:37:24.141Z,25.61
2022-08-18T01:41:01.000Z,25.60
2022-08-18T01:42:16.941Z,25.60
2022-08-18T01:44:43.401Z,25.60
2022-08-18T01:47:09.800Z,25.59
2022-08-18T01:49:36.280Z,25.59
2022-08-18T01:52:02.668Z,25.59
2022-08-18T01:54:29.134Z,25.60
2022-08-18T01:56:55.523Z,25.60
2022-08-18T01:59:21.901Z,25.59
2022-08-18T02:01:53.266Z,25.58
2022-08-18T02:04:33.728Z,25.60
2022-08-18T02:06:42.397Z,25.60
2022-08-18T02:09:07.562Z,25.61
2022-08-18T02:11:33.940Z,25.60
2022-08-18T02:14:00.325Z,25.59
2022-08-18T02:16:26.717Z,25.60
2022-08-18T02:18:53.103Z,25.61
2022-08-18T02:21:19.527Z,25.61
2022-08-18T02:23:49.204Z,25.62
2022-08-18T02:26:12.281Z,25.62
2022-08-18T02:28:38.662Z,25.59
2022-08-18T02:31:05.079Z,25.59
2022-08-18T02:33:31.454Z,25.60
2022-08-18T02:35:59.091Z,25.59
2022-08-18T02:38:24.273Z,25.58
2022-08-18T02:40:50.660Z,25.60
2022-08-18T02:43:17.052Z,25.61
2022-08-18T02:45:43.444Z,25.59
2022-08-18T02:48:09.826Z,25.58
2022-08-18T02:50:36.203Z,25.57
2022-08-18T02:53:02.591Z,25.58
2022-08-18T02:55:28.966Z,25.57
2022-08-18T02:57:55.379Z,25.56
2022-08-18T03:00:21.762Z,25.56
2022-08-18T03:02:48.150Z,25.53
2022-08-18T03:05:14.971Z,25.51
2022-08-18T03:07:40.975Z,25.50
2022-08-18T03:10:33.200Z,25.48
2022-08-18T03:12:33.772Z,25.46
2022-08-18T03:15:00.158Z,25.45
2022-08-18T03:17:26.560Z,25.45
2022-08-18T03:19:52.971Z,25.45
2022-08-18T03:22:28.601Z,25.46
2022-08-18T03:24:45.805Z,25.43
2022-08-18T03:27:12.218Z,25.45
2022-08-18T03:29:40.262Z,25.44
2022-08-18T03:32:05.004Z,25.42
2022-08-18T03:34:31.377Z,25.39
2022-08-18T03:36:57.767Z,25.43
2022-08-18T03:39:24.145Z,25.43
2022-08-18T03:41:58.536Z,25.42
2022-08-18T03:44:16.919Z,25.39
2022-08-18T03:46:43.305Z,25.40
2022-08-18T03:49:09.685Z,25.39
2022-08-18T03:51:36.074Z,25.38
2022-08-18T03:54:02.451Z,25.38
2022-08-18T03:56:28.843Z,25.38
2022-08-18T03:58:55.217Z,25.40
2022-08-18T04:01:23.746Z,25.42
2022-08-18T04:03:47.975Z,25.39
2022-08-18T04:06:14.388Z,25.36
2022-08-18T04:08:40.778Z,25.33
2022-08-18T04:11:07.160Z,25.21
2022-08-18T04:13:33.541Z,25.14
2022-08-18T04:15:59.929Z,25.04
2022-08-18T04:18:26.323Z,25.00
2022-08-18T04:20:56.267Z,24.91
2022-08-18T04:23:19.088Z,24.82
2022-08-18T04:25:45.474Z,24.78
2022-08-18T04:28:11.852Z,24.80
2022-08-18T04:30:38.231Z,24.79
2022-08-18T04:33:04.607Z,24.79
2022-08-18T04:35:30.995Z,24.82
2022-08-18T04:37:57.382Z,24.86
2022-08-18T04:40:25.299Z,24.87
2022-08-18T04:42:50.274Z,24.89
2022-08-18T04:45:16.659Z,24.91
2022-08-18T04:47:43.038Z,24.92
2022-08-18T04:50:09.424Z,24.97
2022-08-18T04:52:40.876Z,24.98
2022-08-18T04:55:02.246Z,24.99
2022-08-18T04:57:28.627Z,25.01
2022-08-18T04:59:55.007Z,25.00
2022-08-18T05:02:21.401Z,25.00
2022-08-18T05:04:47.788Z,25.04
2022-08-18T05:07:14.171Z,25.04
2022-08-18T05:09:41.068Z,25.06
2022-08-18T05:12:06.939Z,25.06
2022-08-18T05:14:33.316Z,25.08
2022-08-18T05:16:59.700Z,25.09
2022-08-18T05:19:26.795Z,25.08
2022-08-18T05:21:53.411Z,25.10
2022-08-18T05:24:19.801Z,25.13
2022-08-18T05:26:46.176Z,25.13
2022-08-18T05:29:18.047Z,25.13
2022-08-18T05:31:38.962Z,25.13
2022-08-18T05:34:05.353Z,25.14
2022-08-18T05:36:31.730Z,25.13
2022-08-18T05:38:58.117Z,25.17
2022-08-18T05:41:24.500Z,25.16
2022-08-18T05:43:51.218Z,25.16
2022-08-18T05:46:17.360Z,25.16
2022-08-18T05:48:43.917Z,25.17
2022-08-18T05:51:10.122Z,25.16
2022-08-18T05:53:36.511Z,25.14
2022-08-18T05:56:05.069Z,25.15
2022-08-18T05:58:33.835Z,25.16
2022-08-18T06:00:59.624Z,25.17
2022-08-18T06:03:24.332Z,25.15
2022-08-18T06:05:50.668Z,25.15
2022-08-18T06:08:17.057Z,25.18
2022-08-18T06:10:43.450Z,25.20
2022-08-18T06:13:09.833Z,25.19
2022-08-18T06:15:36.201Z,25.19
2022-08-18T06:18:02.587Z,25.19
2022-08-18T06:20:28.980Z,25.16
2022-08-18T06:22:55.534Z,25.16
2022-08-18T06:25:21.765Z,25.15
2022-08-18T06:27:48.213Z,25.16
2022-08-18T06:30:14.549Z,25.14
2022-08-18T06:32:41.024Z,25.13
2022-08-18T06:35:07.403Z,25.20
2022-08-18T06:37:33.801Z,25.18
2022-08-18T06:40:00.268Z,25.13
2022-08-18T06:42:26.575Z,25.20
2022-08-18T06:44:53.005Z,25.21
2022-08-18T06:47:19.390Z,25.20
2022-08-18T06:49:45.804Z,25.20
2022-08-18T06:52:12.190Z,25.16
2022-08-18T06:54:38.579Z,25.22
2022-08-18T06:57:04.964Z,25.22
2022-08-18T06:59:31.406Z,25.25
2022-08-18T07:01:57.783Z,25.22
2022-08-18T07:04:24.165Z,25.25
2022-08-18T07:06:50.560Z,25.19
2022-08-18T07:09:17.105Z,25.19
2022-08-18T07:11:43.493Z,25.25
2022-08-18T07:14:16.661Z,25.30
2022-08-18T07:16:57.168Z,25.27
2022-08-18T07:19:02.658Z,25.29
2022-08-18T07:21:29.042Z,25.24
2022-08-18T07:24:21.067Z,25.23
2022-08-18T07:26:21.847Z,25.27
2022-08-18T07:28:48.334Z,25.23
2022-08-18T07:31:17.311Z,25.27
2022-08-18T07:33:41.105Z,25.24
2022-08-18T07:36:07.496Z,25.25
2022-08-18T07:38:49.433Z,25.20
2022-08-18T07:41:00.407Z,25.20
2022-08-18T07:43:26.786Z,25.15
2022-08-18T07:45:53.242Z,25.18
2022-08-18T07:48:38.738Z,25.19
2022-08-18T07:50:58.247Z,25.21
2022-08-18T07:53:12.389Z,25.19
2022-08-18T07:55:38.782Z,25.22
2022-08-18T07:58:05.179Z,25.21
2022-08-18T08:02:58.124Z,25.22
2022-08-18T08:05:24.516Z,25.24
2022-08-18T08:07:51.038Z,25.27
2022-08-18T08:10:17.319Z,25.24
2022-08-18T08:12:43.713Z,25.28
2022-08-18T08:15:10.192Z,25.29
2022-08-18T08:17:36.634Z,25.23
2022-08-18T08:20:03.088Z,25.29
2022-08-18T08:22:29.450Z,25.28
2022-08-18T08:24:55.841Z,25.24
2022-08-18T08:27:22.274Z,25.21
2022-08-18T08:29:48.808Z,25.14
2022-08-18T08:32:15.182Z,25.15
2022-08-18T08:34:41.573Z,25.14
2022-08-18T08:37:08.090Z,25.12
2022-08-18T08:39:34.712Z,25.13
2022-08-18T08:42:31.713Z,25.03
2022-08-18T08:44:27.488Z,25.05
2022-08-18T08:46:53.892Z,25.04
2022-08-18T08:49:20.354Z,25.12
2022-08-18T08:51:46.750Z,25.06
2022-08-18T08:54:13.168Z,25.05
2022-08-18T08:56:40.832Z,25.06
2022-08-18T08:59:06.053Z,25.10
2022-08-18T09:01:32.522Z,25.04
2022-08-18T09:03:58.824Z,25.06
2022-08-18T09:06:25.206Z,25.00
2022-08-18T09:08:51.616Z,25.04
2022-08-18T09:11:18.020Z,25.01
2022-08-18T09:13:44.407Z,25.01
2022-08-18T09:16:12.349Z,25.05
2022-08-18T09:18:37.186Z,25.02
2022-08-18T09:21:03.590Z,25.01
2022-08-18T09:23:29.975Z,24.98
2022-08-18T09:25:56.366Z,24.99
2022-08-18T09:28:22.777Z,25.00
2022-08-18T09:30:51.448Z,25.01
2022-08-18T09:33:18.845Z,25.03
2022-08-18T09:35:41.995Z,25.06
2022-08-18T09:38:08.380Z,25.03
2022-08-18T09:43:02.058Z,25.06
2022-08-18T09:45:31.097Z,25.07
2022-08-18T09:47:54.139Z,25.06
2022-08-18T09:52:47.009Z,25.09
2022-08-18T09:55:13.414Z,25.08
2022-08-18T09:57:42.283Z,25.14
2022-08-18T10:00:07.332Z,25.09
2022-08-18T10:02:32.715Z,25.15
2022-08-18T10:04:59.110Z,25.23
2022-08-18T10:07:25.495Z,25.22
2022-08-18T10:09:51.876Z,25.23
2022-08-18T10:12:18.291Z,25.20
2022-08-18T10:14:45.137Z,25.19
2022-08-18T10:17:23.843Z,25.18
2022-08-18T10:19:39.432Z,25.19
2022-08-18T10:22:03.933Z,25.15
2022-08-18T10:24:36.378Z,25.18
2022-08-18T10:26:56.708Z,25.12
2022-08-18T10:29:23.110Z,25.13
2022-08-18T10:31:49.499Z,25.10
2022-08-18T10:34:18.476Z,25.09
2022-08-18T10:36:42.333Z,25.06
2022-08-18T10:39:09.010Z,25.14
2022-08-18T10:41:35.507Z,25.12
2022-08-18T10:44:07.324Z,25.14
2022-08-18T10:46:31.871Z,25.14
2022-08-18T10:48:54.725Z,25.18
2022-08-18T10:53:47.817Z,25.13
2022-08-18T10:56:13.958Z,25.12
2022-08-18T10:58:40.354Z,25.12
2022-08-18T11:01:07.939Z,25.14
2022-08-18T11:05:59.524Z,25.16
2022-08-18T11:08:25.912Z,25.14
2022-08-18T11:11:33.053Z,25.14
2022-08-18T11:13:18.810Z,25.16
2022-08-18T11:15:45.216Z,25.14
2022-08-18T11:18:11.601Z,25.14
2022-08-18T11:20:38.021Z,25.13
2022-08-18T11:23:04.430Z,25.13
2022-08-18T11:25:30.815Z,25.12
2022-08-18T11:27:57.234Z,25.13
2022-08-18T11:30:31.060Z,25.19
2022-08-18T11:32:51.988Z,25.13
2022-08-18T11:35:16.596Z,25.09
2022-08-18T11:37:51.670Z,25.16
2022-08-18T11:40:09.791Z,25.14
2022-08-18T11:42:35.904Z,25.15
2022-08-18T11:45:02.305Z,25.15
2022-08-18T11:47:30.015Z,25.16
2022-08-18T11:49:55.134Z,25.13
2022-08-18T11:52:26.224Z,25.10
2022-08-18T11:54:50.550Z,25.10
2022-08-18T11:57:14.302Z,25.12
2022-08-18T11:59:54.742Z,25.13
2022-08-18T12:02:07.105Z,25.15
2022-08-18T12:04:33.488Z,25.15
2022-08-18T12:06:59.896Z,25.12
2022-08-18T12:11:52.796Z,25.12
2022-08-18T12:14:30.456Z,25.09
2022-08-18T12:16:46.378Z,25.08
2022-08-18T12:19:12.204Z,25.10
2022-08-18T12:21:38.420Z,25.10
2022-08-18T12:24:04.831Z,25.12
2022-08-18T12:26:38.566Z,25.15
2022-08-18T12:29:01.215Z,25.10
2022-08-18T12:31:29.136Z,25.14
2022-08-18T12:34:00.188Z,25.13
2022-08-18T12:36:16.769Z,25.12
2022-08-18T12:38:43.187Z,25.15
2022-08-18T12:41:11.984Z,25.18
2022-08-18T12:43:38.363Z,25.19
2022-08-18T12:46:04.775Z,25.25
2022-08-18T12:48:31.345Z,25.24
2022-08-18T12:50:59.892Z,25.29
2022-08-18T12:53:29.920Z,25.27
2022-08-18T12:55:50.510Z,25.32
2022-08-18T12:58:16.947Z,25.27
2022-08-18T13:00:43.440Z,25.20
2022-08-18T13:03:09.815Z,25.20
2022-08-18T13:05:36.211Z,25.17
2022-08-18T13:08:04.506Z,25.09
2022-08-18T13:10:43.079Z,25.12
2022-08-18T13:12:55.395Z,25.14
2022-08-18T13:15:21.778Z,25.14
2022-08-18T13:17:48.229Z,25.14
2022-08-18T13:20:14.579Z,25.18
2022-08-18T13:22:40.998Z,25.20
2022-08-18T13:25:07.551Z,25.15
2022-08-18T13:27:35.963Z,25.17
2022-08-18T13:30:00.230Z,25.18
2022-08-18T13:32:26.560Z,25.22
2022-08-18T13:34:52.969Z,25.23
2022-08-18T13:37:20.478Z,25.23
2022-08-18T13:39:45.848Z,25.24
2022-08-18T13:42:26.809Z,25.24
2022-08-18T13:44:38.599Z,25.28
2022-08-18T13:47:04.987Z,25.29
2022-08-18T13:49:31.399Z,25.27
2022-08-18T13:51:57.790Z,25.28
2022-08-18T13:54:31.334Z,25.24
2022-08-18T13:56:51.762Z,25.31
2022-08-18T13:59:16.969Z,25.31
2022-08-18T14:01:51.302Z,25.27
2022-08-18T14:04:12.357Z,25.28
2022-08-18T14:06:36.241Z,25.30
2022-08-18T14:09:02.725Z,25.28
2022-08-18T14:11:32.834Z,25.25
2022-08-18T14:13:55.538Z,25.21
2022-08-18T14:16:22.017Z,25.21
2022-08-18T14:18:48.403Z,25.20
2022-08-18T14:21:14.807Z,25.16
2022-08-18T14:23:51.500Z,25.15
2022-08-18T14:26:07.633Z,25.12
2022-08-18T14:28:34.005Z,25.15
2022-08-18T14:31:00.388Z,25.13
2022-08-18T14:33:34.186Z,25.15
2022-08-18T14:36:05.847Z,25.09
2022-08-18T14:38:19.641Z,25.13
2022-08-18T14:40:46.017Z,25.17
2022-08-18T14:43:14.290Z,25.12
2022-08-18T14:45:38.836Z,25.17
2022-08-18T14:48:06.679Z,25.16
2022-08-18T14:50:31.589Z,25.14
2022-08-18T14:52:58.029Z,25.16
2022-08-18T14:55:24.421Z,25.12
2022-08-18T14:57:50.863Z,25.20
2022-08-18T15:00:17.189Z,25.18
2022-08-18T15:02:43.577Z,25.17
2022-08-18T15:05:19.458Z,25.22
2022-08-18T15:07:36.482Z,25.22
2022-08-18T15:10:15.338Z,25.24
2022-08-18T15:12:29.310Z,25.24
2022-08-18T15:14:55.830Z,25.23
2022-08-18T15:17:22.329Z,25.21
2022-08-18T15:20:00.132Z,25.20
2022-08-18T15:22:15.901Z,25.21
2022-08-18T15:24:41.487Z,25.22
2022-08-18T15:27:10.245Z,25.22
2022-08-18T15:29:34.258Z,25.18
2022-08-18T15:32:05.617Z,25.15
2022-08-18T15:34:27.571Z,25.12
2022-08-18T15:36:53.444Z,25.12
2022-08-18T15:39:19.857Z,25.12
2022-08-18T15:41:46.304Z,25.09
2022-08-18T15:44:12.680Z,25.10
2022-08-18T15:46:39.077Z,25.07
2022-08-18T15:49:05.465Z,25.07
2022-08-18T15:51:41.228Z,25.07
2022-08-18T15:53:58.265Z,25.08
2022-08-18T15:56:26.023Z,25.12
2022-08-18T15:58:51.034Z,25.16
2022-08-18T16:01:29.889Z,25.15
2022-08-18T16:03:43.835Z,25.15
2022-08-18T16:06:10.219Z,25.13
2022-08-18T16:08:36.681Z,25.09
2022-08-18T16:11:03.049Z,25.13
2022-08-18T16:13:29.429Z,25.06
2022-08-18T16:15:55.822Z,25.05
2022-08-18T16:18:22.207Z,25.03
2022-08-18T16:20:48.626Z,25.01
2022-08-18T16:23:14.982Z,25.01
2022-08-18T16:25:41.363Z,25.00
2022-08-18T16:28:07.749Z,24.95
2022-08-18T16:30:34.128Z,24.97
2022-08-18T16:33:00.514Z,24.94
2022-08-18T16:35:26.893Z,24.98
2022-08-18T16:37:53.533Z,24.99
2022-08-18T16:40:19.684Z,25.00
2022-08-18T16:42:46.070Z,25.01
2022-08-18T16:45:13.398Z,25.01
2022-08-18T16:47:38.836Z,25.05
2022-08-18T16:50:05.219Z,25.07
2022-08-18T16:52:31.621Z,25.12
2022-08-18T16:54:58.286Z,25.13
2022-08-18T16:57:24.405Z,25.15
2022-08-18T16:59:50.800Z,25.12
2022-08-18T17:02:17.184Z,25.09
2022-08-18T17:04:43.562Z,25.08
2022-08-18T17:07:10.020Z,25.09
2022-08-18T17:09:36.402Z,25.12
2022-08-18T17:12:02.782Z,25.13
2022-08-18T17:14:29.171Z,25.15
2022-08-18T17:16:55.551Z,25.17
2022-08-18T17:19:21.938Z,25.16
2022-08-18T17:21:48.316Z,25.17
2022-08-18T17:24:14.726Z,25.19
2022-08-18T17:26:41.261Z,25.17
2022-08-18T17:29:07.495Z,25.18
2022-08-18T17:31:33.884Z,25.15
2022-08-18T17:34:00.280Z,25.13
2022-08-18T17:36:26.659Z,25.08
2022-08-18T17:38:53.039Z,25.09
2022-08-18T17:41:19.426Z,25.06
2022-08-18T17:46:12.187Z,25.08
2022-08-18T17:48:38.648Z,25.12
2022-08-18T17:51:05.049Z,25.15
2022-08-18T17:53:31.422Z,25.18
2022-08-18T17:55:57.800Z,25.15
2022-08-18T17:58:24.190Z,25.17
2022-08-18T18:00:50.575Z,25.17
2022-08-18T18:03:16.956Z,25.19
2022-08-18T18:05:43.328Z,25.31
2022-08-18T18:08:09.718Z,25.35
2022-08-18T18:10:43.073Z,25.36
2022-08-18T18:13:04.778Z,25.35
2022-08-18T18:15:31.183Z,25.39
2022-08-18T18:17:57.563Z,25.40
2022-08-18T18:20:23.957Z,25.43
2022-08-18T18:22:50.343Z,25.40
2022-08-18T18:25:16.716Z,25.40
2022-08-18T18:27:43.222Z,25.42
2022-08-18T18:30:09.640Z,25.43
2022-08-18T18:32:36.018Z,25.45
2022-08-18T18:35:02.406Z,25.46
2022-08-18T18:37:28.785Z,25.46
2022-08-18T18:39:55.223Z,25.46
2022-08-18T18:42:21.576Z,25.48
2022-08-18T18:44:47.979Z,25.50
2022-08-18T18:47:14.383Z,25.51
2022-08-18T18:49:40.768Z,25.52
2022-08-18T18:52:07.153Z,25.52
2022-08-18T18:54:33.544Z,25.53
2022-08-18T18:57:00.014Z,25.52
2022-08-18T18:59:26.398Z,25.54
2022-08-18T19:01:52.785Z,25.54
2022-08-18T19:04:19.166Z,25.56
2022-08-18T19:06:45.546Z,25.58
2022-08-18T19:09:11.943Z,25.59
2022-08-18T19:11:38.330Z,25.59
2022-08-18T19:14:07.603Z,25.60
2022-08-18T19:16:31.099Z,25.58
2022-08-18T19:19:35.477Z,25.59
2022-08-18T19:22:03.153Z,25.60
2022-08-18T19:23:50.309Z,25.62
2022-08-18T19:26:16.703Z,25.63
2022-08-18T19:29:12.733Z,25.64
2022-08-18T19:31:09.487Z,25.62
2022-08-18T19:33:35.877Z,25.63
2022-08-18T19:36:02.760Z,25.63
2022-08-18T19:38:29.933Z,25.63
2022-08-18T19:40:55.100Z,25.64
2022-08-18T19:43:21.488Z,25.65
2022-08-18T19:45:47.870Z,25.65
2022-08-18T19:48:18.145Z,25.66
2022-08-18T19:50:41.000Z,25.67
2022-08-18T19:53:07.386Z,25.67
2022-08-18T19:55:33.772Z,25.69
2022-08-18T19:58:00.154Z,25.67
2022-08-18T20:00:26.538Z,25.71
2022-08-18T20:02:53.086Z,25.69
2022-08-18T20:05:19.303Z,25.71
2022-08-18T20:07:46.813Z,25.69
2022-08-18T20:10:12.075Z,25.71
2022-08-18T20:12:38.454Z,25.72
2022-08-18T20:15:04.835Z,25.72
2022-08-18T20:17:31.209Z,25.72
2022-08-18T20:19:57.760Z,25.73
2022-08-18T20:22:24.711Z,25.73
2022-08-18T20:24:50.538Z,25.73
2022-08-18T20:27:16.922Z,25.74
2022-08-18T20:29:43.356Z,25.75
2022-08-18T20:32:09.762Z,25.75
2022-08-18T20:34:37.576Z,25.74
2022-08-18T20:37:02.551Z,25.76
2022-08-18T20:39:29.027Z,25.76
2022-08-18T20:41:55.434Z,25.76
2022-08-18T20:44:28.754Z,25.77
2022-08-18T20:46:48.242Z,25.78
2022-08-18T20:49:14.627Z,25.79
2022-08-18T20:51:41.017Z,25.78
2022-08-18T20:54:13.454Z,25.79
2022-08-18T20:56:43.153Z,25.78
2022-08-18T20:59:00.171Z,25.79
2022-08-18T21:01:26.596Z,25.78
2022-08-18T21:03:52.953Z,25.78
2022-08-18T21:06:19.321Z,25.78
2022-08-18T21:08:45.798Z,25.79
2022-08-18T21:11:12.176Z,25.79
2022-08-18T21:13:38.564Z,25.80
2022-08-18T21:16:04.948Z,25.79
2022-08-18T21:18:31.327Z,25.79
2022-08-18T21:20:57.738Z,25.80
2022-08-18T21:23:24.128Z,25.79
2022-08-18T21:25:50.510Z,25.80
2022-08-18T21:28:18.610Z,25.79
2022-08-18T21:30:43.285Z,25.80
2022-08-18T21:33:09.667Z,25.81
2022-08-18T21:35:36.052Z,25.79
2022-08-18T21:38:02.439Z,25.80
2022-08-18T21:40:29.914Z,25.80
2022-08-18T21:42:55.333Z,25.80
2022-08-18T21:45:21.721Z,25.80
2022-08-18T21:47:48.100Z,25.79
2022-08-18T21:50:14.487Z,25.80
2022-08-18T21:52:40.873Z,25.80
2022-08-18T21:55:07.299Z,25.79
2022-08-18T21:57:33.728Z,25.80
2022-08-18T22:00:00.125Z,25.82
2022-08-18T22:02:26.527Z,25.81
2022-08-18T22:04:52.924Z,25.80
2022-08-18T22:07:34.704Z,25.80
2022-08-18T22:09:45.698Z,25.82
2022-08-18T22:12:12.172Z,25.80
2022-08-18T22:14:53.667Z,25.80
2022-08-18T22:17:06.368Z,25.80
2022-08-18T22:19:31.423Z,25.81
2022-08-18T22:21:57.812Z,25.81
2022-08-18T22:24:24.299Z,25.81
2022-08-18T22:26:50.679Z,25.83
2022-08-18T22:29:17.061Z,25.81
2022-08-18T22:31:43.491Z,25.82
2022-08-18T22:34:09.876Z,25.82
2022-08-18T22:36:36.266Z,25.82
2022-08-18T22:39:02.651Z,25.82
2022-08-18T22:41:29.039Z,25.82
2022-08-18T22:43:55.609Z,25.81
2022-08-18T22:46:24.395Z,25.81
2022-08-18T22:48:48.213Z,25.81
2022-08-18T22:51:14.613Z,25.81
2022-08-18T22:53:41.001Z,25.80
2022-08-18T22:56:07.389Z,25.81
2022-08-18T22:58:33.769Z,25.80
2022-08-18T23:01:01.078Z,25.81
2022-08-18T23:03:26.586Z,25.80
2022-08-18T23:05:52.918Z,25.79
2022-08-18T23:08:19.313Z,25.79
2022-08-18T23:10:45.713Z,25.79
2022-08-18T23:13:12.093Z,25.79
2022-08-18T23:15:38.478Z,25.80
2022-08-18T23:18:04.909Z,25.79
2022-08-18T23:20:31.302Z,25.78
2022-08-18T23:22:57.676Z,25.80
2022-08-18T23:25:24.086Z,25.78
2022-08-18T23:27:53.401Z,25.77
2022-08-18T23:30:19.809Z,25.77
2022-08-18T23:32:46.285Z,25.77
2022-08-18T23:35:12.570Z,25.78
2022-08-18T23:37:38.949Z,25.76
2022-08-18T23:40:05.422Z,25.75
2022-08-18T23:42:31.749Z,25.76
2022-08-18T23:44:58.128Z,25.76
2022-08-18T23:47:24.530Z,25.74
2022-08-18T23:49:50.913Z,25.74
2022-08-18T23:52:17.310Z,25.75
2022-08-18T23:54:43.689Z,25.73
2022-08-18T23:57:10.086Z,25.74
2022-08-18T23:59:36.465Z,25.74
